Isle of Arran, United Kingdom
Current Conditions -  °F | °C
As of 2:20 PM on Monday 20 Oct 2014 (Local Time) from EGPK Reporting Station
Scattered Clouds Scattered Clouds  
Wind Chill: 57°   Ceiling: Unl
Heat Index: 57°   Visibility: 6mi
Dew Point: 50°   Wind: 18mph
Humidity: 77%   Direction: 220°SW
Pressure: 29.74"   Gusts: NA
Location:  55.58°N, 5.15°W
Report Text: EGPK 201320Z 22016KT 9999 FEW016 SCT035 14/10 Q1007
Loading
Personal Weather Stations






























Interactive Weather Map New forecast layout! Learn more

10-Day Weather Forecast

Advertisements
Track Severe Weather on mobile